createdAt,value
2023-01-09T00:01:23.961Z,15.55
2023-01-09T00:02:56.182Z,17.63
2023-01-09T00:04:28.180Z,16.05
2023-01-09T00:07:31.953Z,16.05
2023-01-09T00:09:04.104Z,16.95
2023-01-09T00:10:39.300Z,17.27
2023-01-09T00:12:11.331Z,16.40
2023-01-09T00:13:43.519Z,17.77
2023-01-09T00:15:15.832Z,17.63
2023-01-09T00:16:48.010Z,14.85
2023-01-09T00:18:20.007Z,18.02
2023-01-09T00:19:52.294Z,21.38
2023-01-09T00:21:24.456Z,17.55
2023-01-09T00:22:56.561Z,16.98
2023-01-09T00:24:28.719Z,16.25
2023-01-09T00:26:09.658Z,13.45
2023-01-09T00:27:41.854Z,14.25
2023-01-09T00:29:14.054Z,15.05
2023-01-09T00:30:46.149Z,16.58
2023-01-09T00:32:18.333Z,14.80
2023-01-09T00:33:59.836Z,13.95
2023-01-09T00:37:04.417Z,16.10
2023-01-09T00:38:37.828Z,16.33
2023-01-09T00:40:11.034Z,18.52
2023-01-09T00:41:46.805Z,17.90
2023-01-09T00:43:20.370Z,18.08
2023-01-09T00:46:28.151Z,18.48
2023-01-09T00:48:09.280Z,16.77
2023-01-09T00:49:41.641Z,16.13
2023-01-09T00:51:13.925Z,15.57
2023-01-09T00:52:46.790Z,17.00
2023-01-09T00:54:19.730Z,16.75
2023-01-09T00:55:52.211Z,15.77
2023-01-09T00:57:24.127Z,15.20
2023-01-09T00:58:56.296Z,13.93
2023-01-09T01:00:28.332Z,15.05
2023-01-09T01:02:00.672Z,20.10
2023-01-09T01:03:32.827Z,17.90
2023-01-09T01:05:24.284Z,13.40
2023-01-09T01:07:15.177Z,16.63
2023-01-09T01:08:47.316Z,14.98
2023-01-09T01:10:23.341Z,15.57
2023-01-09T01:11:55.338Z,16.90
2023-01-09T01:13:27.351Z,13.82
2023-01-09T01:15:00.589Z,16.17
2023-01-09T01:16:33.061Z,14.38
2023-01-09T01:18:05.287Z,15.32
2023-01-09T01:19:38.647Z,16.75
2023-01-09T01:21:12.631Z,13.80
2023-01-09T01:22:44.682Z,12.25
2023-01-09T01:24:20.075Z,16.77
2023-01-09T01:25:52.244Z,13.55
2023-01-09T01:27:24.270Z,13.10
2023-01-09T01:28:56.290Z,12.00
2023-01-09T01:30:28.348Z,13.50
2023-01-09T01:32:00.411Z,13.55
2023-01-09T01:33:35.175Z,13.38
2023-01-09T01:35:08.321Z,14.30
2023-01-09T01:36:40.386Z,14.27
2023-01-09T01:38:12.342Z,16.13
2023-01-09T01:39:44.375Z,16.00
2023-01-09T01:41:29.751Z,12.68
2023-01-09T01:43:02.118Z,12.23
2023-01-09T01:45:09.765Z,12.48
2023-01-09T01:46:41.729Z,12.38
2023-01-09T01:48:17.754Z,15.52
2023-01-09T01:49:50.085Z,14.07
2023-01-09T01:51:24.451Z,19.67
2023-01-09T01:53:35.122Z,16.48
2023-01-09T01:55:09.643Z,14.60
2023-01-09T01:56:51.337Z,14.45
2023-01-09T01:58:23.296Z,13.57
2023-01-09T01:59:57.845Z,14.98
2023-01-09T02:01:30.320Z,14.05
2023-01-09T02:03:03.166Z,18.20
2023-01-09T02:04:37.195Z,17.88
2023-01-09T02:06:10.638Z,15.20
2023-01-09T02:07:42.655Z,15.05
2023-01-09T02:09:16.219Z,13.50
2023-01-09T02:12:26.742Z,13.25
2023-01-09T02:13:59.678Z,13.38
2023-01-09T02:15:55.095Z,14.07
2023-01-09T02:17:41.109Z,16.13
2023-01-09T02:19:25.284Z,13.73
2023-01-09T02:21:21.782Z,13.63
2023-01-09T02:22:56.889Z,12.18
2023-01-09T02:24:42.968Z,17.00
2023-01-09T02:26:42.518Z,13.65
2023-01-09T02:28:48.520Z,13.48
2023-01-09T02:30:36.919Z,12.93
2023-01-09T02:32:08.925Z,12.43
2023-01-09T02:34:05.297Z,12.40
2023-01-09T02:35:47.319Z,11.80
2023-01-09T02:37:37.779Z,14.43
2023-01-09T02:39:25.437Z,14.77
2023-01-09T02:41:26.041Z,13.40
2023-01-09T02:42:59.681Z,12.05
2023-01-09T02:46:04.986Z,12.57
2023-01-09T02:47:39.754Z,12.75
2023-01-09T02:49:12.596Z,13.18
2023-01-09T02:50:50.680Z,12.13
2023-01-09T02:52:28.271Z,13.25
2023-01-09T02:54:05.095Z,14.68
2023-01-09T02:56:24.495Z,14.57
2023-01-09T02:58:05.146Z,14.13
2023-01-09T03:00:14.588Z,14.93
2023-01-09T03:02:16.891Z,13.68
2023-01-09T03:04:39.999Z,14.85
2023-01-09T03:06:20.509Z,13.80
2023-01-09T03:08:00.205Z,15.23
2023-01-09T03:11:06.987Z,13.80
2023-01-09T03:12:40.771Z,14.48
2023-01-09T03:14:16.205Z,16.45
2023-01-09T03:15:50.985Z,23.40
2023-01-09T03:17:32.849Z,15.02
2023-01-09T03:19:08.541Z,13.68
2023-01-09T03:20:41.460Z,14.88
2023-01-09T03:22:13.485Z,13.13
2023-01-09T03:23:52.794Z,12.73
2023-01-09T03:25:26.073Z,12.93
2023-01-09T03:26:58.160Z,12.23
2023-01-09T03:28:30.273Z,11.68
2023-01-09T03:30:02.384Z,13.43
2023-01-09T03:31:34.477Z,15.35
2023-01-09T03:33:06.475Z,17.58
2023-01-09T03:34:38.547Z,13.88
2023-01-09T03:36:12.245Z,12.35
2023-01-09T03:37:44.273Z,13.95
2023-01-09T03:39:16.232Z,12.30
2023-01-09T03:40:48.311Z,13.90
2023-01-09T03:42:20.289Z,14.80
2023-01-09T03:43:52.359Z,13.13
2023-01-09T03:45:24.339Z,13.40
2023-01-09T03:46:56.358Z,13.90
2023-01-09T03:48:28.838Z,12.60
2023-01-09T03:50:00.940Z,13.13
2023-01-09T03:51:32.875Z,11.73
2023-01-09T03:53:05.098Z,13.15
2023-01-09T03:54:37.186Z,13.23
2023-01-09T03:56:09.298Z,12.07
2023-01-09T03:57:41.353Z,11.45
2023-01-09T03:59:13.398Z,13.60
2023-01-09T04:00:46.449Z,16.15
2023-01-09T04:02:21.501Z,13.38
2023-01-09T04:03:53.500Z,12.68
2023-01-09T04:05:25.544Z,11.82
2023-01-09T04:06:57.753Z,14.02
2023-01-09T04:08:30.959Z,14.10
2023-01-09T04:10:03.708Z,12.25
2023-01-09T04:11:35.769Z,12.20
2023-01-09T04:13:07.794Z,13.55
2023-01-09T04:14:39.926Z,14.00
2023-01-09T04:16:12.056Z,14.13
2023-01-09T04:17:44.104Z,13.00
2023-01-09T04:19:16.145Z,13.07
2023-01-09T04:20:48.963Z,12.20
2023-01-09T04:22:20.934Z,12.73
2023-01-09T04:23:52.881Z,13.18
2023-01-09T04:25:24.995Z,12.30
2023-01-09T04:26:57.015Z,11.88
2023-01-09T04:28:29.107Z,17.15
2023-01-09T04:30:01.095Z,16.10
2023-01-09T04:31:33.173Z,14.63
2023-01-09T04:33:05.244Z,15.52
2023-01-09T04:34:37.257Z,14.23
2023-01-09T04:36:09.716Z,13.55
2023-01-09T04:37:41.765Z,12.77
2023-01-09T04:39:13.762Z,13.70
2023-01-09T04:40:48.145Z,13.35
2023-01-09T04:42:20.082Z,14.82
2023-01-09T04:43:52.180Z,12.23
2023-01-09T04:45:24.232Z,12.68
2023-01-09T04:46:57.517Z,13.88
2023-01-09T04:48:29.672Z,12.63
2023-01-09T04:50:02.129Z,10.77
2023-01-09T04:51:34.133Z,13.07
2023-01-09T04:53:07.230Z,13.13
2023-01-09T04:54:40.439Z,11.35
2023-01-09T04:56:12.513Z,13.55
2023-01-09T04:57:44.609Z,14.57
2023-01-09T04:59:16.837Z,15.07
2023-01-09T05:00:48.964Z,16.92
2023-01-09T05:02:21.053Z,16.38
2023-01-09T05:03:53.167Z,11.63
2023-01-09T05:05:25.259Z,11.38
2023-01-09T05:06:57.319Z,12.98
2023-01-09T05:08:29.337Z,12.40
2023-01-09T05:10:01.923Z,13.07
2023-01-09T05:11:36.695Z,14.23
2023-01-09T05:13:08.749Z,12.75
2023-01-09T05:14:40.802Z,12.05
2023-01-09T05:16:12.936Z,11.82
2023-01-09T05:17:44.955Z,14.02
2023-01-09T05:19:16.910Z,12.68
2023-01-09T05:20:48.949Z,13.70
2023-01-09T05:22:21.094Z,12.45
2023-01-09T05:23:53.260Z,12.13
2023-01-09T05:25:25.239Z,13.43
2023-01-09T05:26:57.367Z,13.75
2023-01-09T05:28:29.512Z,14.60
2023-01-09T05:30:01.669Z,18.05
2023-01-09T05:31:33.903Z,14.65
2023-01-09T05:33:06.001Z,14.00
2023-01-09T05:34:38.060Z,11.95
2023-01-09T05:36:10.159Z,12.25
2023-01-09T05:37:42.169Z,12.70
2023-01-09T05:39:14.267Z,12.27
2023-01-09T05:40:46.314Z,13.52
2023-01-09T05:42:18.308Z,12.50
2023-01-09T05:43:50.358Z,14.55
2023-01-09T05:45:22.406Z,12.00
2023-01-09T05:46:54.495Z,11.07
2023-01-09T05:48:26.727Z,12.07
2023-01-09T05:49:58.907Z,14.48
2023-01-09T05:51:32.237Z,11.93
2023-01-09T05:53:04.307Z,11.90
2023-01-09T05:54:36.514Z,12.20
2023-01-09T05:56:09.634Z,13.23
2023-01-09T05:57:43.370Z,11.73
2023-01-09T05:59:15.404Z,11.68
2023-01-09T06:00:50.214Z,14.23
2023-01-09T06:02:22.406Z,12.18
2023-01-09T06:03:54.480Z,13.43
2023-01-09T06:05:26.537Z,12.40
2023-01-09T06:06:58.577Z,13.27
2023-01-09T06:08:30.645Z,12.27
2023-01-09T06:10:02.613Z,12.60
2023-01-09T06:11:36.376Z,14.80
2023-01-09T06:13:08.394Z,15.75
2023-01-09T06:14:40.445Z,14.00
2023-01-09T06:16:14.229Z,16.35
2023-01-09T06:19:22.782Z,18.08
2023-01-09T06:20:54.813Z,13.68
2023-01-09T06:22:26.834Z,11.90
2023-01-09T06:23:59.165Z,11.98
2023-01-09T06:25:31.340Z,12.50
2023-01-09T06:27:03.513Z,11.85
2023-01-09T06:28:35.697Z,12.73
2023-01-09T06:30:08.466Z,16.73
2023-01-09T06:31:40.493Z,14.60
2023-01-09T06:33:12.653Z,13.40
2023-01-09T06:34:45.057Z,14.25
2023-01-09T06:36:17.345Z,17.02
2023-01-09T06:37:50.202Z,14.57
2023-01-09T06:39:22.176Z,13.90
2023-01-09T06:40:54.220Z,13.77
2023-01-09T06:42:26.201Z,13.90
2023-01-09T06:43:58.203Z,13.68
2023-01-09T06:45:30.322Z,15.52
2023-01-09T06:47:03.079Z,15.57
2023-01-09T06:48:35.393Z,14.63
2023-01-09T06:50:09.551Z,14.13
2023-01-09T06:51:41.572Z,13.45
2023-01-09T06:53:13.669Z,13.52
2023-01-09T06:54:45.674Z,12.73
2023-01-09T06:56:17.784Z,17.02
2023-01-09T06:57:49.817Z,16.17
2023-01-09T06:59:21.831Z,14.48
2023-01-09T07:00:55.893Z,17.10
2023-01-09T07:02:27.993Z,15.25
2023-01-09T07:04:00.098Z,13.63
2023-01-09T07:05:33.840Z,15.13
2023-01-09T07:07:05.894Z,13.25
2023-01-09T07:08:37.909Z,13.48
2023-01-09T07:10:10.990Z,13.95
2023-01-09T07:11:43.067Z,15.52
2023-01-09T07:13:15.079Z,14.43
2023-01-09T07:14:47.180Z,16.13
2023-01-09T07:16:19.514Z,16.05
2023-01-09T07:17:52.378Z,14.60
2023-01-09T07:19:24.541Z,16.98
2023-01-09T07:20:56.615Z,15.60
2023-01-09T07:22:28.780Z,15.35
2023-01-09T07:24:03.906Z,15.68
2023-01-09T07:25:35.926Z,15.77
2023-01-09T07:27:08.036Z,15.50
2023-01-09T07:28:40.210Z,15.15
2023-01-09T07:30:12.935Z,15.55
2023-01-09T07:31:44.954Z,16.98
2023-01-09T07:33:17.215Z,15.90
2023-01-09T07:34:50.129Z,15.07
2023-01-09T07:36:22.170Z,16.10
2023-01-09T07:37:54.197Z,15.50
2023-01-09T07:39:26.240Z,16.73
2023-01-09T07:40:58.494Z,16.30
2023-01-09T07:42:30.671Z,16.38
2023-01-09T07:44:05.832Z,17.27
2023-01-09T07:45:37.853Z,16.48
2023-01-09T07:47:09.849Z,18.05
2023-01-09T07:48:41.924Z,19.70
2023-01-09T07:50:14.013Z,16.80
2023-01-09T07:51:48.552Z,16.75
2023-01-09T07:53:20.574Z,16.10
2023-01-09T07:54:52.578Z,16.92
2023-01-09T07:58:10.080Z,17.40
2023-01-09T07:59:42.184Z,17.25
2023-01-09T08:01:14.579Z,16.77
2023-01-09T08:02:46.884Z,17.48
2023-01-09T08:04:21.719Z,15.80
2023-01-09T08:05:53.853Z,16.67
2023-01-09T08:07:25.830Z,17.13
2023-01-09T08:09:00.831Z,16.10
2023-01-09T08:10:32.970Z,18.42
2023-01-09T08:12:05.369Z,18.67
2023-01-09T08:13:37.494Z,19.98
2023-01-09T08:15:10.010Z,19.70
2023-01-09T08:16:42.191Z,18.60
2023-01-09T08:18:14.317Z,18.92
2023-01-09T08:19:46.688Z,18.83
2023-01-09T08:21:18.717Z,19.27
2023-01-09T08:22:50.994Z,18.33
2023-01-09T08:24:22.992Z,18.88
2023-01-09T08:25:55.106Z,18.50
2023-01-09T08:27:27.131Z,18.98
2023-01-09T08:28:59.282Z,20.10
2023-01-09T08:30:31.295Z,20.77
2023-01-09T08:32:03.355Z,20.83
2023-01-09T08:33:35.525Z,21.25
2023-01-09T08:35:08.424Z,22.50
2023-01-09T08:36:40.483Z,21.35
2023-01-09T08:38:12.540Z,19.42
2023-01-09T08:39:44.793Z,20.67
2023-01-09T08:41:35.614Z,22.17
2023-01-09T08:43:26.555Z,21.13
2023-01-09T08:45:17.164Z,21.05
2023-01-09T08:47:07.435Z,20.23
2023-01-09T08:48:39.774Z,21.00
2023-01-09T08:50:12.331Z,21.58
2023-01-09T08:51:44.381Z,20.95
2023-01-09T08:53:16.378Z,20.02
2023-01-09T08:54:48.446Z,19.40
2023-01-09T08:56:20.547Z,20.08
2023-01-09T08:57:53.914Z,19.45
2023-01-09T08:59:25.978Z,18.65
2023-01-09T09:01:02.319Z,18.25
2023-01-09T09:02:34.510Z,18.55
2023-01-09T09:04:06.704Z,18.70
2023-01-09T09:05:38.721Z,18.02
2023-01-09T09:07:10.769Z,17.92
2023-01-09T09:08:42.764Z,20.60
2023-01-09T09:10:15.600Z,19.52
2023-01-09T09:11:47.635Z,20.73
2023-01-09T09:13:19.737Z,20.60
2023-01-09T09:15:10.749Z,18.95
2023-01-09T09:16:42.926Z,19.25
2023-01-09T09:18:15.050Z,16.40
2023-01-09T09:19:47.136Z,17.48
2023-01-09T09:21:20.773Z,16.65
2023-01-09T09:24:24.774Z,17.40
2023-01-09T09:25:56.845Z,15.88
2023-01-09T09:27:28.815Z,17.00
2023-01-09T09:29:00.897Z,16.65
2023-01-09T09:30:33.268Z,16.80
2023-01-09T09:32:05.331Z,15.80
2023-01-09T09:33:37.333Z,16.05
2023-01-09T09:35:10.419Z,15.20
2023-01-09T09:36:42.492Z,16.38
2023-01-09T09:38:14.627Z,14.93
2023-01-09T09:39:46.648Z,17.00
2023-01-09T09:41:56.386Z,16.17
2023-01-09T09:44:15.120Z,15.63
2023-01-09T09:46:00.046Z,15.95
2023-01-09T09:47:49.695Z,15.85
2023-01-09T09:49:29.249Z,16.13
2023-01-09T09:51:23.853Z,16.85
2023-01-09T09:54:49.764Z,16.50
2023-01-09T09:56:24.005Z,17.85
2023-01-09T09:57:57.039Z,17.35
2023-01-09T09:59:33.645Z,17.95
2023-01-09T10:03:16.499Z,22.52
2023-01-09T10:04:55.743Z,23.75
2023-01-09T10:06:32.447Z,21.85
2023-01-09T10:08:16.359Z,22.63
2023-01-09T10:09:56.390Z,28.05
2023-01-09T10:11:35.535Z,22.83
2023-01-09T10:13:27.962Z,23.17
2023-01-09T10:15:02.597Z,23.17
2023-01-09T10:17:00.022Z,21.75
2023-01-09T10:18:55.487Z,22.15
2023-01-09T10:20:50.606Z,22.83
2023-01-09T10:22:47.282Z,22.95
2023-01-09T10:24:22.652Z,23.50
2023-01-09T10:26:42.075Z,23.23
2023-01-09T10:28:38.974Z,23.13
2023-01-09T10:30:31.631Z,22.50
2023-01-09T10:32:33.879Z,22.38
2023-01-09T10:34:15.102Z,21.92
2023-01-09T10:36:13.620Z,21.58
2023-01-09T10:37:47.156Z,20.92
2023-01-09T10:41:01.714Z,22.05
2023-01-09T10:42:47.957Z,21.80
2023-01-09T10:44:42.490Z,22.88
2023-01-09T10:46:31.245Z,22.33
2023-01-09T10:48:29.679Z,21.65
2023-01-09T10:50:26.124Z,21.83
2023-01-09T10:52:11.436Z,21.52
2023-01-09T10:53:46.763Z,20.50
2023-01-09T10:55:20.190Z,20.17
2023-01-09T10:56:56.940Z,20.85
2023-01-09T10:58:29.948Z,21.40
2023-01-09T11:00:02.137Z,19.40
2023-01-09T11:01:38.565Z,19.15
2023-01-09T11:03:15.810Z,19.98
2023-01-09T11:06:26.373Z,18.13
2023-01-09T11:08:31.540Z,19.40
2023-01-09T11:11:45.823Z,18.85
2023-01-09T11:13:26.262Z,19.42
2023-01-09T11:15:30.611Z,18.63
2023-01-09T11:17:07.182Z,19.63
2023-01-09T11:18:41.601Z,17.77
2023-01-09T11:20:17.657Z,18.75
2023-01-09T11:21:50.235Z,17.63
2023-01-09T11:23:30.967Z,18.17
2023-01-09T11:25:03.893Z,17.85
2023-01-09T11:26:35.967Z,18.38
2023-01-09T11:28:10.258Z,18.30
2023-01-09T11:29:43.659Z,18.35
2023-01-09T11:31:21.807Z,17.50
2023-01-09T11:32:58.086Z,18.77
2023-01-09T11:34:34.569Z,19.13
2023-01-09T11:36:11.568Z,18.33
2023-01-09T11:37:44.682Z,17.30
2023-01-09T11:39:38.306Z,16.00
2023-01-09T11:41:20.746Z,16.20
2023-01-09T11:43:31.074Z,17.15
2023-01-09T11:45:03.228Z,17.35
2023-01-09T11:46:39.879Z,15.57
2023-01-09T11:48:34.600Z,16.55
2023-01-09T11:50:24.537Z,17.08
2023-01-09T11:52:15.882Z,16.48
2023-01-09T11:53:56.584Z,20.10
2023-01-09T11:55:34.867Z,16.77
2023-01-09T11:57:14.231Z,18.05
2023-01-09T11:58:46.342Z,16.33
2023-01-09T12:00:30.874Z,17.08
2023-01-09T12:02:39.776Z,18.13
2023-01-09T12:04:23.959Z,16.85
2023-01-09T12:06:06.077Z,21.55
2023-01-09T12:08:07.121Z,26.70
2023-01-09T12:09:41.959Z,16.02
2023-01-09T12:11:13.984Z,17.38
2023-01-09T12:13:15.333Z,18.05
2023-01-09T12:15:04.116Z,16.13
2023-01-09T12:16:48.380Z,16.65
2023-01-09T12:18:38.060Z,16.48
2023-01-09T12:20:28.220Z,17.05
2023-01-09T12:22:25.282Z,16.70
2023-01-09T12:24:34.297Z,17.42
2023-01-09T12:26:23.539Z,23.50
2023-01-09T12:28:19.590Z,17.67
2023-01-09T12:30:16.868Z,16.20
2023-01-09T12:32:29.847Z,15.23
2023-01-09T12:34:20.250Z,16.10
2023-01-09T12:36:28.768Z,19.80
2023-01-09T12:38:05.619Z,16.08
2023-01-09T12:40:11.541Z,17.08
2023-01-09T12:42:25.384Z,14.88
2023-01-09T12:44:34.329Z,16.33
2023-01-09T12:46:17.044Z,15.02
2023-01-09T12:47:50.538Z,15.98
2023-01-09T12:49:38.333Z,16.08
2023-01-09T12:51:28.489Z,15.07
2023-01-09T12:53:14.614Z,14.30
2023-01-09T12:54:51.981Z,15.27
2023-01-09T12:56:34.600Z,13.98
2023-01-09T12:58:23.259Z,16.17
2023-01-09T13:00:01.889Z,16.95
2023-01-09T13:01:40.493Z,16.55
2023-01-09T13:03:27.363Z,16.70
2023-01-09T13:05:33.709Z,16.30
2023-01-09T13:07:12.411Z,14.93
2023-01-09T13:09:26.937Z,16.00
2023-01-09T13:11:18.957Z,15.95
2023-01-09T13:12:52.989Z,15.75
2023-01-09T13:14:48.719Z,16.33
2023-01-09T13:16:34.043Z,14.07
2023-01-09T13:18:28.098Z,14.40
2023-01-09T13:20:00.327Z,15.05
2023-01-09T13:21:33.143Z,14.65
2023-01-09T13:23:06.182Z,15.70
2023-01-09T13:24:38.245Z,14.52
2023-01-09T13:26:16.243Z,15.73
2023-01-09T13:27:58.203Z,16.45
2023-01-09T13:29:33.648Z,16.67
2023-01-09T13:31:21.494Z,15.70
2023-01-09T13:33:21.983Z,15.95
2023-01-09T13:34:57.626Z,16.25
2023-01-09T13:36:33.403Z,16.20
2023-01-09T13:38:05.455Z,16.05
2023-01-09T13:39:37.629Z,14.93
2023-01-09T13:41:36.155Z,15.40
2023-01-09T13:43:10.195Z,16.92
2023-01-09T13:44:42.866Z,15.68
2023-01-09T13:46:15.071Z,16.33
2023-01-09T13:47:47.423Z,16.13
2023-01-09T13:49:47.290Z,17.02
2023-01-09T13:51:58.462Z,17.75
2023-01-09T13:53:32.338Z,15.57
2023-01-09T13:55:16.655Z,15.90
2023-01-09T13:57:19.088Z,16.52
2023-01-09T13:58:59.303Z,15.15
2023-01-09T14:00:38.086Z,16.17
2023-01-09T14:02:35.127Z,16.13
2023-01-09T14:04:10.329Z,16.08
2023-01-09T14:05:42.382Z,16.73
2023-01-09T14:07:20.341Z,17.40
2023-01-09T14:09:18.592Z,15.43
2023-01-09T14:11:00.525Z,16.23
2023-01-09T14:12:40.850Z,15.77
2023-01-09T14:14:23.826Z,15.23
2023-01-09T14:16:04.799Z,14.93
2023-01-09T14:17:38.206Z,15.98
2023-01-09T14:19:16.092Z,15.68
2023-01-09T14:21:11.851Z,16.35
2023-01-09T14:22:55.865Z,15.98
2023-01-09T14:24:52.884Z,15.63
2023-01-09T14:26:41.869Z,16.25
2023-01-09T14:28:23.791Z,17.17
2023-01-09T14:30:27.833Z,18.08
2023-01-09T14:32:26.647Z,17.15
2023-01-09T14:34:36.092Z,16.75
2023-01-09T14:36:16.042Z,15.23
2023-01-09T14:37:59.906Z,16.10
2023-01-09T14:39:33.064Z,16.27
2023-01-09T14:41:49.775Z,16.35
2023-01-09T14:43:48.954Z,17.40
2023-01-09T14:45:26.364Z,16.17
2023-01-09T14:47:19.230Z,16.40
2023-01-09T14:49:26.088Z,17.70
2023-01-09T14:51:00.011Z,17.25
2023-01-09T14:52:39.193Z,18.65
2023-01-09T14:54:33.525Z,17.58
2023-01-09T14:56:08.746Z,18.27
2023-01-09T14:57:40.723Z,18.77
2023-01-09T14:59:14.831Z,17.25
2023-01-09T15:00:59.254Z,18.38
2023-01-09T15:02:34.712Z,18.65
2023-01-09T15:04:19.126Z,19.08
2023-01-09T15:05:52.999Z,19.80
2023-01-09T15:07:34.527Z,18.88
2023-01-09T15:09:09.631Z,18.25
2023-01-09T15:10:44.495Z,18.98
2023-01-09T15:12:20.619Z,18.40
2023-01-09T15:13:53.703Z,19.27
2023-01-09T15:15:26.181Z,19.58
2023-01-09T15:16:58.602Z,19.77
2023-01-09T15:18:34.242Z,20.35
2023-01-09T15:20:08.029Z,22.90
2023-01-09T15:21:40.105Z,20.80
2023-01-09T15:23:23.280Z,20.38
2023-01-09T15:24:55.442Z,21.70
2023-01-09T15:26:31.322Z,21.67
2023-01-09T15:28:35.223Z,21.20
2023-01-09T15:30:17.190Z,20.52
2023-01-09T15:31:54.526Z,21.30
2023-01-09T15:33:26.910Z,21.55
2023-01-09T15:35:09.714Z,22.63
2023-01-09T15:36:42.009Z,21.88
2023-01-09T15:38:33.482Z,23.50
2023-01-09T15:40:10.047Z,23.67
2023-01-09T15:42:00.467Z,22.33
2023-01-09T15:43:33.481Z,25.67
2023-01-09T15:45:06.196Z,25.17
2023-01-09T15:46:38.242Z,25.08
2023-01-09T15:48:18.891Z,23.05
2023-01-09T15:49:51.516Z,24.20
2023-01-09T15:51:24.627Z,25.80
2023-01-09T15:52:57.478Z,24.42
2023-01-09T15:54:31.725Z,22.35
2023-01-09T15:56:08.323Z,23.20
2023-01-09T15:57:51.647Z,24.02
2023-01-09T15:59:29.093Z,24.30
2023-01-09T16:01:27.534Z,25.23
2023-01-09T16:03:12.568Z,23.17
2023-01-09T16:04:44.711Z,22.02
2023-01-09T16:06:22.586Z,23.25
2023-01-09T16:07:54.685Z,22.27
2023-01-09T16:09:29.913Z,22.42
2023-01-09T16:11:04.559Z,23.58
2023-01-09T16:12:36.599Z,23.33
2023-01-09T16:14:27.671Z,24.52
2023-01-09T16:16:00.558Z,24.08
2023-01-09T16:17:34.108Z,23.33
2023-01-09T16:20:38.550Z,23.15
2023-01-09T16:22:37.277Z,23.20
2023-01-09T16:24:15.483Z,23.88
2023-01-09T16:25:47.451Z,24.80
2023-01-09T16:27:27.377Z,24.15
2023-01-09T16:29:38.620Z,25.42
2023-01-09T16:31:25.331Z,24.75
2023-01-09T16:32:57.508Z,24.05
2023-01-09T16:34:30.158Z,24.42
2023-01-09T16:36:05.357Z,30.00
2023-01-09T16:37:37.786Z,25.85
2023-01-09T16:39:19.353Z,25.65
2023-01-09T16:41:23.617Z,33.17
2023-01-09T16:43:01.137Z,24.08
2023-01-09T16:44:33.357Z,25.90
2023-01-09T16:46:05.573Z,26.00
2023-01-09T16:47:37.917Z,24.27
2023-01-09T16:49:23.759Z,25.02
2023-01-09T16:50:55.849Z,23.55
2023-01-09T16:52:27.869Z,26.02
2023-01-09T16:53:59.909Z,26.13
2023-01-09T16:55:32.013Z,28.02
2023-01-09T16:57:04.115Z,28.05
2023-01-09T16:58:36.527Z,29.42
2023-01-09T17:00:15.988Z,31.48
2023-01-09T17:01:48.584Z,31.90
2023-01-09T17:03:21.018Z,31.30
2023-01-09T17:04:55.661Z,32.90
2023-01-09T17:06:28.914Z,37.03
2023-01-09T17:08:00.865Z,31.73
2023-01-09T17:09:33.082Z,34.60
2023-01-09T17:11:05.641Z,34.30
2023-01-09T17:12:38.901Z,33.83
2023-01-09T17:14:14.373Z,33.05
2023-01-09T17:15:46.719Z,35.17
2023-01-09T17:17:20.381Z,33.45
2023-01-09T17:18:52.492Z,32.95
2023-01-09T17:21:57.251Z,32.60
2023-01-09T17:23:29.404Z,33.92
2023-01-09T17:25:19.867Z,31.15
2023-01-09T17:27:10.721Z,28.30
2023-01-09T17:28:52.078Z,28.17
2023-01-09T17:30:24.240Z,25.80
2023-01-09T17:31:57.612Z,26.15
2023-01-09T17:33:30.060Z,28.27
2023-01-09T17:35:02.070Z,26.38
2023-01-09T17:36:35.321Z,24.50
2023-01-09T17:38:09.805Z,25.60
2023-01-09T17:39:42.212Z,26.08
2023-01-09T17:41:14.415Z,24.45
2023-01-09T17:42:46.451Z,24.67
2023-01-09T17:44:18.546Z,26.70
2023-01-09T17:45:51.121Z,26.10
2023-01-09T17:47:23.405Z,23.92
2023-01-09T17:48:55.690Z,22.05
2023-01-09T17:50:34.119Z,22.15
2023-01-09T17:52:07.273Z,25.65
2023-01-09T17:53:39.290Z,25.42
2023-01-09T17:55:11.484Z,21.42
2023-01-09T17:56:46.015Z,23.25
2023-01-09T17:58:30.510Z,20.85
2023-01-09T18:00:02.822Z,19.67
2023-01-09T18:01:34.844Z,20.17
2023-01-09T18:03:08.249Z,21.02
2023-01-09T18:04:40.264Z,19.63
2023-01-09T18:06:13.207Z,19.00
2023-01-09T18:07:45.286Z,18.77
2023-01-09T18:09:18.313Z,18.23
2023-01-09T18:10:50.388Z,17.92
2023-01-09T18:12:22.505Z,21.13
2023-01-09T18:13:57.041Z,18.02
2023-01-09T18:15:29.094Z,19.75
2023-01-09T18:17:02.762Z,19.55
2023-01-09T18:18:35.824Z,20.60
2023-01-09T18:20:08.703Z,19.75
2023-01-09T18:21:40.821Z,20.67
2023-01-09T18:23:13.184Z,19.38
2023-01-09T18:26:21.590Z,17.23
2023-01-09T18:27:53.687Z,17.23
2023-01-09T18:29:25.807Z,18.58
2023-01-09T18:30:57.954Z,17.48
2023-01-09T18:32:29.955Z,18.15
2023-01-09T18:34:07.075Z,19.30
2023-01-09T18:35:39.494Z,21.85
2023-01-09T18:37:11.625Z,21.05
2023-01-09T18:38:43.686Z,20.25
2023-01-09T18:40:15.848Z,18.90
2023-01-09T18:41:48.034Z,18.48
2023-01-09T18:43:20.652Z,19.60
2023-01-09T18:44:52.666Z,19.02
2023-01-09T18:46:25.554Z,17.50
2023-01-09T18:47:57.894Z,17.80
2023-01-09T18:49:29.975Z,17.08
2023-01-09T18:51:03.766Z,19.27
2023-01-09T18:52:35.812Z,20.85
2023-01-09T18:54:12.051Z,19.63
2023-01-09T18:55:44.127Z,17.70
2023-01-09T18:57:16.133Z,18.55
2023-01-09T18:58:49.066Z,18.67
2023-01-09T19:00:21.584Z,20.13
2023-01-09T19:01:53.561Z,22.27
2023-01-09T19:03:25.611Z,25.38
2023-01-09T19:04:57.574Z,25.83
2023-01-09T19:06:30.864Z,25.35
2023-01-09T19:08:02.887Z,26.10
2023-01-09T19:09:36.166Z,28.42
2023-01-09T19:11:08.265Z,20.70
2023-01-09T19:12:40.583Z,15.95
2023-01-09T19:14:12.807Z,18.05
2023-01-09T19:15:44.855Z,18.95
2023-01-09T19:17:17.048Z,17.88
2023-01-09T19:18:49.367Z,17.48
2023-01-09T19:20:21.467Z,17.70
2023-01-09T19:21:53.687Z,19.75
2023-01-09T19:23:25.814Z,19.08
2023-01-09T19:24:57.850Z,18.63
2023-01-09T19:26:31.315Z,18.77
2023-01-09T19:29:36.799Z,20.42
2023-01-09T19:31:09.087Z,20.02
2023-01-09T19:32:41.181Z,17.58
2023-01-09T19:34:13.868Z,16.63
2023-01-09T19:35:49.183Z,18.15
2023-01-09T19:37:21.287Z,16.58
2023-01-09T19:38:57.845Z,16.05
2023-01-09T19:40:29.897Z,17.23
2023-01-09T19:42:01.991Z,15.57
2023-01-09T19:43:34.089Z,16.27
2023-01-09T19:45:06.641Z,17.45
2023-01-09T19:46:38.660Z,15.98
2023-01-09T19:48:10.676Z,15.40
2023-01-09T19:49:42.716Z,15.93
2023-01-09T19:51:16.165Z,15.15
2023-01-09T19:52:48.268Z,15.80
2023-01-09T19:54:20.325Z,16.42
2023-01-09T19:55:52.335Z,15.88
2023-01-09T19:57:24.431Z,16.02
2023-01-09T19:58:59.031Z,16.52
2023-01-09T20:00:31.190Z,16.55
2023-01-09T20:02:03.742Z,17.60
2023-01-09T20:03:35.962Z,17.92
2023-01-09T20:05:09.080Z,17.00
2023-01-09T20:06:44.156Z,17.75
2023-01-09T20:08:18.858Z,27.80
2023-01-09T20:09:50.958Z,20.52
2023-01-09T20:11:24.975Z,20.42
2023-01-09T20:12:57.049Z,16.27
2023-01-09T20:14:30.083Z,16.52
2023-01-09T20:16:03.705Z,16.52
2023-01-09T20:17:35.788Z,18.42
2023-01-09T20:19:09.035Z,18.95
2023-01-09T20:20:49.082Z,20.63
2023-01-09T20:22:21.230Z,20.05
2023-01-09T20:23:55.818Z,17.73
2023-01-09T20:25:27.863Z,18.85
2023-01-09T20:27:00.976Z,21.70
2023-01-09T20:28:33.124Z,20.48
2023-01-09T20:30:05.927Z,25.35
2023-01-09T20:31:38.022Z,31.45
2023-01-09T20:33:10.045Z,23.48
2023-01-09T20:34:44.168Z,20.63
2023-01-09T20:36:16.310Z,19.98
2023-01-09T20:37:48.256Z,21.20
2023-01-09T20:39:20.602Z,22.33
2023-01-09T20:40:52.686Z,19.13
2023-01-09T20:42:24.687Z,20.25
2023-01-09T20:44:06.152Z,21.08
2023-01-09T20:45:38.757Z,18.50
2023-01-09T20:47:10.826Z,17.97
2023-01-09T20:48:43.635Z,19.40
2023-01-09T20:50:16.344Z,18.90
2023-01-09T20:51:52.751Z,17.92
2023-01-09T20:53:24.808Z,18.23
2023-01-09T20:54:56.909Z,17.35
2023-01-09T20:56:30.849Z,19.73
2023-01-09T20:58:02.973Z,19.13
2023-01-09T20:59:35.107Z,18.25
2023-01-09T21:01:14.178Z,18.70
2023-01-09T21:02:46.242Z,18.30
2023-01-09T21:04:18.711Z,18.85
2023-01-09T21:05:50.849Z,19.08
2023-01-09T21:07:24.987Z,19.17
2023-01-09T21:08:57.003Z,18.83
2023-01-09T21:10:28.991Z,19.50
2023-01-09T21:12:01.032Z,19.83
2023-01-09T21:13:33.192Z,18.27
2023-01-09T21:15:08.797Z,19.92
2023-01-09T21:16:40.965Z,18.75
2023-01-09T21:18:13.077Z,18.42
2023-01-09T21:19:45.325Z,19.08
2023-01-09T21:21:19.448Z,21.88